createdAt,value
2023-03-06T00:00:37.290Z,81.12
2023-03-06T00:01:37.272Z,81.01
2023-03-06T00:02:37.273Z,81.12
2023-03-06T00:03:37.280Z,81.32
2023-03-06T00:04:37.240Z,81.43
2023-03-06T00:05:37.230Z,81.32
2023-03-06T00:06:37.226Z,81.43
2023-03-06T00:07:37.178Z,81.53
2023-03-06T00:08:37.219Z,81.53
2023-03-06T00:09:37.173Z,81.53
2023-03-06T00:10:37.217Z,81.63
2023-03-06T00:11:37.148Z,81.53
2023-03-06T00:12:38.622Z,81.43
2023-03-06T00:13:37.158Z,81.43
2023-03-06T00:14:37.154Z,81.43
2023-03-06T00:15:37.104Z,81.43
2023-03-06T00:16:37.224Z,81.53
2023-03-06T00:17:37.105Z,81.53
2023-03-06T00:18:37.115Z,81.63
2023-03-06T00:19:37.088Z,81.84
2023-03-06T00:20:37.091Z,81.95
2023-03-06T00:21:37.057Z,81.95
2023-03-06T00:22:37.052Z,81.84
2023-03-06T00:23:37.043Z,81.95
2023-03-06T00:24:37.047Z,82.05
2023-03-06T00:25:36.982Z,82.26
2023-03-06T00:26:37.013Z,82.26
2023-03-06T00:27:36.975Z,82.05
2023-03-06T00:28:36.982Z,82.05
2023-03-06T00:29:36.959Z,82.26
2023-03-06T00:30:36.993Z,82.26
2023-03-06T00:31:36.990Z,82.26
2023-03-06T00:32:37.134Z,82.15
2023-03-06T00:33:36.903Z,82.15
2023-03-06T00:34:36.924Z,82.15
2023-03-06T00:35:36.942Z,82.36
2023-03-06T00:36:36.882Z,82.46
2023-03-06T00:37:36.869Z,82.57
2023-03-06T00:38:36.871Z,82.57
2023-03-06T00:39:36.850Z,82.46
2023-03-06T00:40:36.872Z,82.36
2023-03-06T00:41:36.834Z,82.05
2023-03-06T00:42:36.825Z,81.84
2023-03-06T00:43:36.798Z,81.74
2023-03-06T00:44:36.808Z,81.43
2023-03-06T00:45:36.835Z,81.43
2023-03-06T00:46:36.800Z,81.43
2023-03-06T00:47:36.800Z,81.43
2023-03-06T00:48:36.759Z,81.74
2023-03-06T00:49:36.725Z,81.74
2023-03-06T00:50:36.768Z,81.84
2023-03-06T00:51:36.704Z,81.84
2023-03-06T00:52:36.735Z,81.74
2023-03-06T00:53:36.678Z,81.74
2023-03-06T00:54:36.744Z,81.84
2023-03-06T00:55:36.684Z,81.95
2023-03-06T00:56:36.684Z,81.95
2023-03-06T00:57:36.640Z,81.98
2023-03-06T00:58:36.698Z,82.15
2023-03-06T00:59:36.634Z,82.26
2023-03-06T01:00:36.704Z,82.26
2023-03-06T01:01:36.631Z,82.36
2023-03-06T01:02:36.631Z,82.46
2023-03-06T01:03:36.577Z,82.46
2023-03-06T01:04:36.598Z,82.46
2023-03-06T01:05:36.550Z,82.46
2023-03-06T01:06:36.572Z,82.68
2023-03-06T01:07:36.669Z,82.78
2023-03-06T01:08:36.566Z,82.78
2023-03-06T01:09:36.514Z,82.78
2023-03-06T01:10:36.551Z,82.78
2023-03-06T01:11:36.525Z,82.78
2023-03-06T01:12:36.522Z,82.78
2023-03-06T01:13:36.479Z,82.74
2023-03-06T01:14:36.492Z,82.64
2023-03-06T01:15:36.445Z,82.64
2023-03-06T01:16:36.527Z,82.43
2023-03-06T01:17:36.446Z,82.43
2023-03-06T01:18:36.733Z,82.43
2023-03-06T01:19:36.432Z,82.43
2023-03-06T01:20:36.797Z,82.43
2023-03-06T01:21:36.384Z,82.57
2023-03-06T01:22:36.407Z,82.64
2023-03-06T01:23:36.359Z,82.64
2023-03-06T01:24:36.456Z,82.64
2023-03-06T01:25:36.365Z,82.43
2023-03-06T01:26:36.386Z,82.53
2023-03-06T01:27:36.327Z,82.64
2023-03-06T01:28:36.341Z,82.64
2023-03-06T01:29:37.291Z,82.53
2023-03-06T01:30:36.305Z,82.43
2023-03-06T01:31:36.328Z,82.53
2023-03-06T01:32:36.349Z,82.64
2023-03-06T01:33:36.270Z,82.64
2023-03-06T01:34:36.265Z,82.64
2023-03-06T01:35:36.292Z,82.64
2023-03-06T01:36:36.277Z,82.53
2023-03-06T01:37:37.035Z,82.64
2023-03-06T01:38:36.322Z,82.68
2023-03-06T01:39:36.184Z,82.64
2023-03-06T01:40:36.199Z,82.68
2023-03-06T01:41:36.174Z,82.68
2023-03-06T01:42:36.174Z,82.78
2023-03-06T01:43:36.162Z,82.89
2023-03-06T01:44:36.180Z,82.89
2023-03-06T01:45:36.173Z,82.89
2023-03-06T01:46:36.151Z,82.99
2023-03-06T01:47:36.155Z,82.99
2023-03-06T01:48:36.137Z,82.89
2023-03-06T01:49:36.078Z,82.89
2023-03-06T01:50:36.094Z,82.89
2023-03-06T01:51:36.069Z,82.99
2023-03-06T01:52:36.160Z,83.20
2023-03-06T01:53:36.059Z,83.30
2023-03-06T01:54:36.073Z,83.40
2023-03-06T01:55:36.027Z,83.51
2023-03-06T01:56:36.065Z,83.51
2023-03-06T01:57:36.008Z,83.30
2023-03-06T01:58:36.020Z,83.20
2023-03-06T01:59:36.031Z,83.09
2023-03-06T02:00:35.984Z,83.09
2023-03-06T02:01:35.972Z,83.20
2023-03-06T02:02:35.998Z,83.47
2023-03-06T02:03:44.466Z,83.47
2023-03-06T02:04:35.954Z,83.58
2023-03-06T02:05:35.939Z,83.58
2023-03-06T02:06:35.981Z,83.78
2023-03-06T02:07:35.925Z,83.68
2023-03-06T02:08:35.923Z,83.78
2023-03-06T02:09:35.880Z,83.99
2023-03-06T02:10:35.885Z,84.09
2023-03-06T02:11:35.899Z,84.09
2023-03-06T02:12:35.894Z,84.09
2023-03-06T02:13:35.824Z,84.09
2023-03-06T02:14:35.847Z,84.09
2023-03-06T02:15:35.822Z,84.20
2023-03-06T02:16:35.847Z,84.20
2023-03-06T02:17:35.797Z,84.41
2023-03-06T02:18:35.804Z,84.51
2023-03-06T02:19:35.772Z,84.51
2023-03-06T02:20:35.777Z,84.44
2023-03-06T02:21:35.740Z,84.44
2023-03-06T02:22:35.744Z,84.55
2023-03-06T02:23:35.728Z,84.65
2023-03-06T02:24:35.730Z,84.96
2023-03-06T02:25:35.737Z,85.17
2023-03-06T02:26:35.710Z,85.49
2023-03-06T02:27:35.687Z,85.49
2023-03-06T02:28:35.686Z,85.49
2023-03-06T02:29:35.647Z,85.49
2023-03-06T02:30:36.216Z,85.59
2023-03-06T02:31:35.695Z,85.69
2023-03-06T02:32:35.691Z,85.69
2023-03-06T02:33:35.611Z,85.59
2023-03-06T02:34:35.630Z,85.80
2023-03-06T02:35:35.705Z,86.11
2023-03-06T02:36:35.626Z,86.32
2023-03-06T02:37:35.570Z,86.42
2023-03-06T02:38:35.587Z,86.32
2023-03-06T02:39:35.579Z,86.32
2023-03-06T02:40:35.563Z,86.35
2023-03-06T02:41:35.526Z,86.57
2023-03-06T02:42:35.543Z,86.77
2023-03-06T02:43:35.507Z,86.98
2023-03-06T02:44:35.519Z,86.98
2023-03-06T02:45:35.516Z,86.88
2023-03-06T02:46:35.535Z,86.73
2023-03-06T02:47:35.465Z,86.73
2023-03-06T02:48:35.499Z,86.73
2023-03-06T02:49:35.439Z,86.73
2023-03-06T02:50:35.468Z,86.83
2023-03-06T02:51:35.451Z,86.73
2023-03-06T02:52:35.456Z,86.83
2023-03-06T02:53:35.399Z,86.83
2023-03-06T02:54:35.428Z,86.83
2023-03-06T02:55:35.382Z,86.94
2023-03-06T02:56:35.405Z,86.94
2023-03-06T02:57:35.350Z,86.94
2023-03-06T02:58:35.364Z,86.83
2023-03-06T02:59:35.349Z,86.94
2023-03-06T03:00:35.393Z,86.83
2023-03-06T03:01:35.406Z,86.83
2023-03-06T03:02:35.369Z,86.63
2023-03-06T03:03:35.292Z,86.63
2023-03-06T03:04:35.385Z,86.69
2023-03-06T03:05:35.263Z,86.59
2023-03-06T03:06:35.293Z,86.49
2023-03-06T03:07:35.254Z,86.49
2023-03-06T03:08:35.253Z,86.69
2023-03-06T03:09:35.243Z,86.80
2023-03-06T03:10:35.281Z,86.80
2023-03-06T03:11:35.191Z,86.80
2023-03-06T03:12:35.212Z,86.59
2023-03-06T03:13:35.200Z,86.38
2023-03-06T03:14:35.238Z,86.27
2023-03-06T03:15:35.222Z,86.27
2023-03-06T03:16:35.995Z,86.38
2023-03-06T03:17:35.126Z,86.49
2023-03-06T03:18:35.167Z,86.59
2023-03-06T03:19:35.117Z,86.59
2023-03-06T03:20:35.146Z,86.59
2023-03-06T03:21:35.120Z,86.49
2023-03-06T03:22:35.132Z,86.49
2023-03-06T03:23:35.067Z,86.38
2023-03-06T03:24:35.123Z,86.38
2023-03-06T03:25:35.036Z,86.38
2023-03-06T03:26:35.059Z,86.38
2023-03-06T03:27:35.064Z,86.27
2023-03-06T03:28:35.041Z,86.27
2023-03-06T03:29:35.017Z,86.38
2023-03-06T03:30:35.018Z,86.49
2023-03-06T03:31:34.998Z,86.49
2023-03-06T03:32:35.065Z,86.49
2023-03-06T03:33:34.969Z,86.49
2023-03-06T03:34:34.977Z,86.59
2023-03-06T03:35:35.030Z,86.59
2023-03-06T03:36:34.979Z,86.59
2023-03-06T03:37:34.935Z,86.69
2023-03-06T03:38:34.902Z,86.69
2023-03-06T03:39:34.927Z,86.69
2023-03-06T03:40:34.916Z,86.69
2023-03-06T03:41:34.911Z,86.69
2023-03-06T03:42:34.875Z,86.69
2023-03-06T03:43:34.898Z,86.69
2023-03-06T03:44:34.848Z,86.69
2023-03-06T03:45:34.873Z,86.69
2023-03-06T03:46:34.846Z,86.69
2023-03-06T03:47:34.852Z,86.69
2023-03-06T03:48:34.813Z,86.69
2023-03-06T03:49:34.825Z,86.59
2023-03-06T03:50:34.778Z,86.49
2023-03-06T03:51:34.795Z,86.59
2023-03-06T03:52:34.774Z,86.59
2023-03-06T03:53:34.794Z,86.49
2023-03-06T03:54:34.738Z,86.49
2023-03-06T03:55:34.765Z,86.38
2023-03-06T03:56:34.740Z,86.38
2023-03-06T03:57:34.754Z,86.49
2023-03-06T03:58:34.705Z,86.69
2023-03-06T03:59:34.714Z,86.80
2023-03-06T04:00:34.665Z,86.90
2023-03-06T04:01:34.736Z,87.01
2023-03-06T04:02:34.653Z,87.01
2023-03-06T04:03:34.691Z,87.11
2023-03-06T04:04:34.673Z,87.21
2023-03-06T04:05:34.646Z,87.21
2023-03-06T04:06:34.613Z,87.42
2023-03-06T04:07:34.629Z,87.63
2023-03-06T04:08:34.636Z,87.84
2023-03-06T04:09:34.877Z,88.19
2023-03-06T04:10:34.564Z,88.40
2023-03-06T04:11:34.580Z,88.50
2023-03-06T04:12:34.538Z,88.60
2023-03-06T04:13:34.587Z,88.71
2023-03-06T04:14:34.547Z,88.81
2023-03-06T04:15:34.526Z,89.17
2023-03-06T04:16:34.567Z,89.48
2023-03-06T04:17:34.501Z,90.00
2023-03-06T04:18:34.489Z,90.31
2023-03-06T04:19:34.499Z,90.52
2023-03-06T04:20:34.468Z,90.52
2023-03-06T04:21:34.734Z,90.52
2023-03-06T04:22:35.410Z,90.52
2023-03-06T04:23:34.431Z,90.62
2023-03-06T04:24:34.444Z,90.62
2023-03-06T04:25:34.433Z,90.69
2023-03-06T04:26:35.841Z,90.79
2023-03-06T04:27:34.402Z,90.79
2023-03-06T04:28:34.373Z,90.89
2023-03-06T04:29:34.378Z,90.79
2023-03-06T04:30:34.353Z,90.79
2023-03-06T04:31:34.432Z,90.79
2023-03-06T04:32:35.333Z,90.69
2023-03-06T04:33:34.346Z,90.58
2023-03-06T04:34:34.312Z,90.47
2023-03-06T04:35:34.434Z,90.47
2023-03-06T04:36:34.294Z,90.37
2023-03-06T04:37:34.591Z,90.37
2023-03-06T04:38:34.348Z,90.37
2023-03-06T04:39:34.276Z,90.26
2023-03-06T04:40:34.315Z,90.26
2023-03-06T04:41:34.250Z,90.26
2023-03-06T04:42:34.218Z,90.16
2023-03-06T04:43:34.240Z,90.26
2023-03-06T04:44:34.201Z,90.26
2023-03-06T04:45:35.761Z,90.26
2023-03-06T04:46:34.215Z,90.26
2023-03-06T04:47:34.210Z,90.26
2023-03-06T04:48:34.146Z,90.37
2023-03-06T04:49:34.177Z,90.47
2023-03-06T04:50:34.160Z,90.47
2023-03-06T04:51:34.144Z,90.58
2023-03-06T04:52:34.158Z,90.47
2023-03-06T04:53:34.427Z,90.47
2023-03-06T04:54:34.079Z,90.47
2023-03-06T04:55:34.131Z,90.47
2023-03-06T04:56:34.068Z,90.47
2023-03-06T04:57:34.171Z,90.47
2023-03-06T04:58:34.043Z,90.47
2023-03-06T04:59:34.057Z,90.47
2023-03-06T05:00:34.015Z,90.47
2023-03-06T05:01:34.042Z,90.47
2023-03-06T05:02:34.038Z,90.37
2023-03-06T05:03:34.014Z,90.26
2023-03-06T05:04:33.981Z,90.26
2023-03-06T05:05:33.992Z,90.26
2023-03-06T05:06:33.979Z,90.26
2023-03-06T05:07:33.980Z,90.37
2023-03-06T05:08:33.924Z,90.26
2023-03-06T05:09:33.980Z,90.26
2023-03-06T05:10:33.914Z,90.37
2023-03-06T05:11:33.921Z,90.47
2023-03-06T05:12:33.901Z,90.47
2023-03-06T05:13:33.909Z,90.58
2023-03-06T05:14:33.874Z,90.58
2023-03-06T05:15:33.880Z,90.47
2023-03-06T05:16:33.900Z,90.37
2023-03-06T05:17:33.896Z,90.26
2023-03-06T05:18:33.821Z,89.95
2023-03-06T05:19:33.837Z,89.75
2023-03-06T05:20:33.827Z,89.75
2023-03-06T05:21:33.823Z,89.64
2023-03-06T05:22:33.781Z,89.75
2023-03-06T05:23:33.796Z,89.64
2023-03-06T05:24:33.770Z,89.64
2023-03-06T05:25:33.775Z,89.64
2023-03-06T05:26:33.910Z,89.43
2023-03-06T05:27:33.757Z,89.43
2023-03-06T05:28:33.723Z,89.18
2023-03-06T05:29:33.752Z,89.18
2023-03-06T05:30:33.695Z,89.08
2023-03-06T05:31:33.784Z,88.98
2023-03-06T05:32:35.571Z,88.98
2023-03-06T05:33:33.721Z,89.08
2023-03-06T05:34:33.665Z,89.08
2023-03-06T05:35:33.688Z,89.08
2023-03-06T05:36:33.635Z,89.08
2023-03-06T05:37:33.643Z,89.08
2023-03-06T05:38:33.616Z,89.08
2023-03-06T05:39:33.651Z,88.98
2023-03-06T05:40:33.592Z,88.87
2023-03-06T05:41:33.643Z,88.67
2023-03-06T05:42:33.865Z,88.67
2023-03-06T05:43:33.606Z,88.62
2023-03-06T05:44:33.550Z,88.77
2023-03-06T05:45:33.585Z,88.84
2023-03-06T05:46:33.552Z,88.87
2023-03-06T05:47:33.558Z,88.84
2023-03-06T05:48:33.526Z,88.84
2023-03-06T05:49:33.550Z,88.94
2023-03-06T05:50:33.494Z,88.84
2023-03-06T05:51:33.529Z,88.94
2023-03-06T05:52:34.146Z,88.73
2023-03-06T05:53:33.489Z,88.62
2023-03-06T05:54:33.445Z,88.77
2023-03-06T05:55:33.491Z,88.87
2023-03-06T05:56:34.395Z,88.87
2023-03-06T05:57:33.445Z,88.73
2023-03-06T05:58:33.417Z,88.73
2023-03-06T05:59:34.103Z,88.73
2023-03-06T06:00:33.402Z,88.77
2023-03-06T06:01:33.399Z,88.67
2023-03-06T06:02:33.421Z,88.87
2023-03-06T06:03:33.508Z,88.98
2023-03-06T06:04:33.361Z,88.98
2023-03-06T06:05:33.340Z,89.08
2023-03-06T06:06:33.351Z,89.08
2023-03-06T06:07:33.346Z,89.18
2023-03-06T06:08:33.310Z,89.29
2023-03-06T06:09:33.308Z,89.29
2023-03-06T06:10:33.303Z,89.39
2023-03-06T06:11:33.305Z,89.60
2023-03-06T06:12:33.247Z,89.60
2023-03-06T06:13:33.256Z,89.39
2023-03-06T06:14:33.241Z,89.50
2023-03-06T06:15:33.282Z,89.60
2023-03-06T06:16:33.219Z,89.70
2023-03-06T06:17:33.211Z,89.70
2023-03-06T06:18:33.187Z,89.50
2023-03-06T06:19:33.249Z,89.18
2023-03-06T06:20:33.185Z,89.08
2023-03-06T06:21:33.177Z,88.98
2023-03-06T06:22:33.163Z,88.77
2023-03-06T06:23:33.222Z,88.94
2023-03-06T06:24:33.140Z,89.04
2023-03-06T06:25:33.128Z,88.84
2023-03-06T06:26:33.121Z,88.62
2023-03-06T06:27:33.140Z,88.52
2023-03-06T06:28:33.063Z,88.42
2023-03-06T06:29:33.164Z,88.52
2023-03-06T06:30:33.046Z,88.52
2023-03-06T06:31:33.311Z,88.42
2023-03-06T06:32:33.096Z,88.42
2023-03-06T06:33:33.032Z,88.42
2023-03-06T06:34:33.063Z,88.31
2023-03-06T06:35:33.082Z,88.31
2023-03-06T06:36:33.322Z,88.21
2023-03-06T06:37:33.007Z,88.10
2023-03-06T06:38:32.986Z,88.00
2023-03-06T06:39:33.336Z,88.10
2023-03-06T06:40:33.077Z,88.31
2023-03-06T06:41:53.112Z,88.31
2023-03-06T06:42:39.453Z,88.31
2023-03-06T06:43:33.934Z,88.31
2023-03-06T06:44:32.902Z,88.42
2023-03-06T06:45:32.931Z,88.42
2023-03-06T06:47:18.126Z,88.42
2023-03-06T06:47:33.964Z,88.38
2023-03-06T06:48:32.861Z,88.28
2023-03-06T06:49:32.903Z,88.17
2023-03-06T06:50:32.839Z,87.76
2023-03-06T06:51:32.864Z,87.55
2023-03-06T06:52:32.818Z,87.55
2023-03-06T06:53:32.828Z,87.65
2023-03-06T06:54:32.801Z,87.76
2023-03-06T06:55:32.839Z,87.76
2023-03-06T06:56:32.773Z,87.45
2023-03-06T06:57:32.795Z,87.19
2023-03-06T06:58:32.747Z,86.88
2023-03-06T06:59:32.762Z,86.68
2023-03-06T07:00:32.775Z,86.68
2023-03-06T07:01:32.845Z,86.68
2023-03-06T07:02:32.720Z,86.47
2023-03-06T07:03:32.735Z,86.47
2023-03-06T07:04:32.973Z,86.47
2023-03-06T07:05:32.701Z,86.78
2023-03-06T07:06:32.669Z,87.09
2023-03-06T07:07:32.703Z,86.99
2023-03-06T07:08:32.649Z,86.78
2023-03-06T07:09:32.665Z,86.78
2023-03-06T07:10:32.624Z,86.68
2023-03-06T07:11:32.631Z,86.68
2023-03-06T07:12:32.630Z,86.57
2023-03-06T07:13:32.612Z,86.47
2023-03-06T07:14:32.583Z,86.47
2023-03-06T07:15:32.609Z,86.36
2023-03-06T07:16:32.557Z,86.36
2023-03-06T07:17:32.619Z,86.36
2023-03-06T07:18:32.572Z,86.36
2023-03-06T07:19:32.555Z,86.36
2023-03-06T07:20:32.516Z,86.26
2023-03-06T07:21:32.535Z,86.26
2023-03-06T07:22:41.545Z,86.36
2023-03-06T07:23:33.538Z,86.57
2023-03-06T07:24:32.472Z,86.78
2023-03-06T07:25:32.778Z,86.78
2023-03-06T07:26:34.610Z,86.88
2023-03-06T07:27:32.499Z,86.88
2023-03-06T07:28:46.203Z,86.78
2023-03-06T07:29:33.438Z,86.88
2023-03-06T07:30:32.407Z,86.99
2023-03-06T07:31:32.575Z,86.99
2023-03-06T07:32:32.418Z,86.99
2023-03-06T07:33:32.397Z,86.99
2023-03-06T07:34:32.375Z,86.93
2023-03-06T07:35:32.429Z,87.03
2023-03-06T07:36:32.364Z,87.24
2023-03-06T07:37:32.348Z,87.45
2023-03-06T07:38:32.350Z,87.69
2023-03-06T07:39:32.358Z,88.00
2023-03-06T07:40:32.305Z,88.21
2023-03-06T07:41:32.504Z,88.42
2023-03-06T07:42:32.277Z,88.73
2023-03-06T07:43:32.289Z,89.18
2023-03-06T07:44:32.264Z,89.50
2023-03-06T07:45:32.263Z,89.81
2023-03-06T07:46:33.254Z,90.02
2023-03-06T07:47:32.247Z,90.23
2023-03-06T07:48:32.222Z,90.23
2023-03-06T07:49:33.175Z,90.23
2023-03-06T07:50:32.196Z,90.33
2023-03-06T07:51:32.229Z,90.44
2023-03-06T07:52:32.210Z,90.44
2023-03-06T07:53:32.202Z,90.54
2023-03-06T07:54:32.173Z,90.64
2023-03-06T07:55:32.138Z,90.64
2023-03-06T07:56:32.177Z,90.64
2023-03-06T07:57:32.134Z,90.75
2023-03-06T07:58:32.131Z,90.75
2023-03-06T07:59:33.544Z,90.95
2023-03-06T08:00:32.142Z,91.06
2023-03-06T08:01:32.188Z,90.91
2023-03-06T08:02:32.192Z,90.85
2023-03-06T08:03:32.087Z,91.02
2023-03-06T08:04:32.067Z,91.12
2023-03-06T08:05:32.036Z,91.02
2023-03-06T08:06:32.063Z,91.22
2023-03-06T08:07:32.043Z,91.22
2023-03-06T08:08:32.027Z,91.12
2023-03-06T08:09:32.007Z,91.02
2023-03-06T08:10:32.008Z,91.02
2023-03-06T08:11:31.976Z,90.91
2023-03-06T08:12:32.026Z,90.91
2023-03-06T08:13:31.981Z,90.91
2023-03-06T08:14:31.958Z,91.02
2023-03-06T08:15:31.944Z,90.91
2023-03-06T08:16:32.024Z,91.02
2023-03-06T08:17:31.919Z,91.02
2023-03-06T08:18:31.939Z,91.02
2023-03-06T08:19:32.165Z,90.77
2023-03-06T08:20:31.914Z,90.77
2023-03-06T08:21:31.902Z,90.77
2023-03-06T08:22:31.871Z,90.56
2023-03-06T08:23:31.849Z,90.45
2023-03-06T08:24:31.856Z,90.35
2023-03-06T08:25:31.818Z,90.20
2023-03-06T08:26:31.849Z,90.20
2023-03-06T08:27:31.824Z,90.20
2023-03-06T08:28:31.815Z,90.20
2023-03-06T08:29:32.409Z,90.10
2023-03-06T08:30:31.807Z,90.10
2023-03-06T08:31:31.773Z,90.00
2023-03-06T08:32:31.880Z,89.89
2023-03-06T08:33:31.861Z,89.89
2023-03-06T08:34:31.766Z,90.00
2023-03-06T08:35:31.798Z,90.06
2023-03-06T08:36:31.776Z,89.96
2023-03-06T08:37:32.031Z,89.75
2023-03-06T08:38:31.708Z,89.65
2023-03-06T08:39:31.654Z,89.44
2023-03-06T08:40:31.711Z,89.54
2023-03-06T08:41:31.649Z,89.65
2023-03-06T08:42:31.666Z,89.75
2023-03-06T08:43:31.603Z,89.86
2023-03-06T08:44:31.660Z,89.86
2023-03-06T08:45:31.661Z,89.65
2023-03-06T08:46:31.611Z,89.54
2023-03-06T08:47:31.583Z,89.44
2023-03-06T08:48:31.624Z,89.23
2023-03-06T08:49:31.566Z,88.92
2023-03-06T08:50:31.618Z,88.71
2023-03-06T08:51:31.526Z,88.61
2023-03-06T08:52:31.563Z,89.03
2023-03-06T08:53:42.765Z,89.13
2023-03-06T08:54:32.519Z,89.13
2023-03-06T08:55:31.529Z,88.82
2023-03-06T08:56:31.515Z,88.20
2023-03-06T08:57:31.500Z,87.88
2023-03-06T08:58:31.514Z,87.68
2023-03-06T08:59:31.473Z,87.47
2023-03-06T09:00:31.512Z,86.95
2023-03-06T09:01:31.526Z,86.29
2023-03-06T09:02:31.491Z,85.97
2023-03-06T09:03:31.395Z,85.87
2023-03-06T09:04:31.399Z,86.08
2023-03-06T09:05:31.368Z,85.97
2023-03-06T09:06:31.408Z,85.87
2023-03-06T09:07:31.370Z,85.66
2023-03-06T09:08:31.370Z,85.77
2023-03-06T09:09:31.364Z,85.77
2023-03-06T09:10:31.351Z,85.66
2023-03-06T09:11:31.304Z,85.63
2023-03-06T09:12:40.429Z,85.31
2023-03-06T09:13:32.291Z,85.00
2023-03-06T09:14:31.311Z,84.69
2023-03-06T09:15:31.247Z,84.38
2023-03-06T09:16:31.368Z,84.28
2023-03-06T09:17:31.246Z,83.93
2023-03-06T09:18:31.287Z,83.34
2023-03-06T09:19:31.233Z,83.45
2023-03-06T09:20:31.252Z,83.76
2023-03-06T09:21:31.217Z,83.69
2023-03-06T09:22:31.298Z,84.21
2023-03-06T09:23:31.176Z,84.63
2023-03-06T09:24:31.186Z,84.94
2023-03-06T09:25:31.208Z,85.04
2023-03-06T09:26:45.151Z,85.04
2023-03-06T09:27:33.087Z,84.94
2023-03-06T09:28:31.152Z,85.14
2023-03-06T09:29:31.118Z,83.69
2023-03-06T09:30:31.172Z,82.97
2023-03-06T09:31:31.095Z,82.93
2023-03-06T09:32:31.138Z,82.93
2023-03-06T09:33:31.109Z,82.93
2023-03-06T09:34:31.086Z,83.14
2023-03-06T09:35:31.069Z,83.41
2023-03-06T09:36:31.061Z,83.31
2023-03-06T09:37:31.057Z,82.89
2023-03-06T09:38:31.338Z,82.48
2023-03-06T09:39:31.010Z,82.34
2023-03-06T09:40:31.047Z,82.34
2023-03-06T09:41:31.213Z,82.44
2023-03-06T09:42:30.992Z,82.44
2023-03-06T09:43:30.962Z,82.29
2023-03-06T09:44:30.982Z,82.40
2023-03-06T09:45:31.100Z,81.78
2023-03-06T09:46:31.159Z,81.37
2023-03-06T09:47:30.914Z,79.60
2023-03-06T09:48:30.969Z,77.53
2023-03-06T09:49:30.901Z,76.71
2023-03-06T09:50:30.937Z,77.47
2023-03-06T09:51:30.898Z,77.84
2023-03-06T09:52:30.877Z,77.22
2023-03-06T09:53:30.864Z,76.81
2023-03-06T09:54:30.861Z,76.19
2023-03-06T09:55:30.845Z,75.57
2023-03-06T09:56:30.830Z,75.36
2023-03-06T09:57:30.821Z,75.98
2023-03-06T09:58:30.820Z,76.09
2023-03-06T09:59:30.793Z,76.09
2023-03-06T10:00:30.817Z,76.29
2023-03-06T10:01:30.763Z,75.78
2023-03-06T10:02:30.903Z,74.84
2023-03-06T10:03:30.816Z,75.05
2023-03-06T10:04:30.848Z,74.91
2023-03-06T10:05:30.721Z,74.81
2023-03-06T10:06:30.742Z,74.71
2023-03-06T10:07:30.702Z,74.81
2023-03-06T10:08:30.713Z,75.43
2023-03-06T10:09:30.672Z,75.22
2023-03-06T10:10:30.701Z,75.53
2023-03-06T10:11:30.657Z,75.63
2023-03-06T10:12:30.662Z,74.91
2023-03-06T10:13:30.637Z,74.60
2023-03-06T10:14:30.649Z,74.36
2023-03-06T10:15:30.698Z,73.84
2023-03-06T10:16:30.655Z,73.84
2023-03-06T10:17:30.870Z,73.94
2023-03-06T10:18:30.606Z,73.33
2023-03-06T10:19:30.569Z,72.60
2023-03-06T10:20:30.617Z,72.91
2023-03-06T10:21:30.562Z,73.12
2023-03-06T10:22:30.591Z,73.22
2023-03-06T10:23:30.532Z,73.33
2023-03-06T10:24:30.554Z,73.02
2023-03-06T10:25:30.511Z,72.71
2023-03-06T10:26:30.651Z,72.60
2023-03-06T10:27:30.473Z,73.22
2023-03-06T10:28:30.559Z,73.39
2023-03-06T10:29:30.468Z,73.33
2023-03-06T10:30:30.486Z,73.39
2023-03-06T10:31:31.432Z,72.78
2023-03-06T10:32:42.720Z,72.29
2023-03-06T10:33:31.435Z,72.39
2023-03-06T10:34:30.431Z,73.02
2023-03-06T10:35:31.012Z,72.08
2023-03-06T10:36:30.438Z,71.67
2023-03-06T10:37:31.666Z,71.57
2023-03-06T10:38:30.384Z,71.67
2023-03-06T10:39:30.637Z,71.88
2023-03-06T10:40:30.364Z,71.47
2023-03-06T10:41:30.349Z,71.26
2023-03-06T10:42:30.367Z,71.15
2023-03-06T10:43:30.521Z,70.74
2023-03-06T10:44:30.348Z,70.43
2023-03-06T10:45:40.563Z,70.84
2023-03-06T10:46:31.503Z,71.57
2023-03-06T10:47:30.273Z,72.19
2023-03-06T10:48:30.281Z,71.36
2023-03-06T10:49:30.280Z,71.88
2023-03-06T10:50:30.262Z,71.67
2023-03-06T10:51:30.494Z,71.88
2023-03-06T10:52:30.238Z,72.60
2023-03-06T10:53:30.194Z,73.12
2023-03-06T10:54:30.226Z,73.64
2023-03-06T10:55:30.480Z,73.12
2023-03-06T10:56:30.194Z,73.12
2023-03-06T10:57:30.152Z,73.12
2023-03-06T10:58:30.194Z,73.43
2023-03-06T10:59:30.151Z,73.64
2023-03-06T11:00:30.156Z,73.12
2023-03-06T11:01:30.147Z,73.54
2023-03-06T11:02:30.132Z,73.64
2023-03-06T11:03:30.094Z,73.94
2023-03-06T11:04:30.196Z,74.26
2023-03-06T11:05:30.073Z,74.12
2023-03-06T11:06:30.082Z,74.36
2023-03-06T11:07:30.050Z,73.94
2023-03-06T11:08:30.073Z,74.12
2023-03-06T11:09:30.064Z,74.22
2023-03-06T11:10:30.058Z,73.60
2023-03-06T11:11:37.398Z,73.91
2023-03-06T11:12:32.187Z,74.12
2023-03-06T11:13:29.987Z,74.33
2023-03-06T11:14:30.002Z,74.22
2023-03-06T11:15:29.967Z,74.33
2023-03-06T11:16:30.029Z,74.12
2023-03-06T11:17:29.974Z,73.50
2023-03-06T11:18:29.956Z,73.50
2023-03-06T11:19:29.917Z,74.02
2023-03-06T11:20:41.285Z,74.43
2023-03-06T11:21:31.705Z,74.22
2023-03-06T11:22:29.955Z,74.63
2023-03-06T11:23:29.882Z,74.36
2023-03-06T11:24:29.900Z,74.46
2023-03-06T11:25:29.875Z,74.36
2023-03-06T11:26:31.314Z,73.94
2023-03-06T11:27:31.300Z,74.05
2023-03-06T11:28:29.914Z,74.46
2023-03-06T11:29:30.788Z,74.46
2023-03-06T11:30:29.836Z,73.33
2023-03-06T11:31:30.769Z,73.84
2023-03-06T11:32:30.613Z,74.05
2023-03-06T11:33:29.787Z,73.54
2023-03-06T11:34:31.249Z,73.94
2023-03-06T11:35:31.233Z,73.74
2023-03-06T11:36:29.844Z,73.84
2023-03-06T11:37:29.941Z,74.15
2023-03-06T11:38:30.681Z,74.26
2023-03-06T11:39:30.665Z,74.15
2023-03-06T11:40:29.723Z,73.84
2023-03-06T11:41:29.676Z,74.15
2023-03-06T11:42:29.741Z,74.05
2023-03-06T11:43:29.681Z,73.74
2023-03-06T11:44:31.126Z,73.84
2023-03-06T11:45:31.122Z,74.19
2023-03-06T11:46:29.769Z,74.29
2023-03-06T11:47:31.091Z,74.19
2023-03-06T11:48:29.710Z,74.71
2023-03-06T11:49:30.251Z,74.19
2023-03-06T11:50:29.725Z,74.40
2023-03-06T11:51:29.702Z,74.50
2023-03-06T11:52:29.599Z,74.60
2023-03-06T11:53:29.741Z,74.60
2023-03-06T11:54:29.581Z,74.50
2023-03-06T11:55:29.517Z,74.50
2023-03-06T11:56:31.596Z,74.71
2023-03-06T11:57:29.510Z,74.60
2023-03-06T11:58:29.527Z,74.71
2023-03-06T11:59:29.514Z,75.02
2023-03-06T12:00:29.495Z,75.43
2023-03-06T12:01:29.465Z,75.63
2023-03-06T12:02:29.602Z,75.63
2023-03-06T12:03:29.465Z,75.53
2023-03-06T12:04:29.479Z,75.63
2023-03-06T12:05:29.478Z,75.84
2023-03-06T12:06:29.446Z,76.19
2023-03-06T12:07:29.419Z,76.26
2023-03-06T12:08:29.410Z,76.26
2023-03-06T12:09:29.395Z,76.29
2023-03-06T12:10:29.358Z,76.40
2023-03-06T12:11:30.700Z,76.36
2023-03-06T12:12:29.412Z,76.26
2023-03-06T12:13:29.356Z,76.26
2023-03-06T12:14:29.338Z,76.26
2023-03-06T12:15:29.737Z,76.88
2023-03-06T12:16:29.336Z,77.19
2023-03-06T12:17:29.332Z,77.39
2023-03-06T12:18:29.283Z,77.84
2023-03-06T12:19:29.287Z,77.74
2023-03-06T12:20:29.287Z,77.95
2023-03-06T12:21:29.271Z,77.95
2023-03-06T12:22:31.214Z,78.26
2023-03-06T12:23:29.244Z,78.12
2023-03-06T12:24:29.199Z,77.91
2023-03-06T12:25:29.238Z,77.91
2023-03-06T12:26:29.214Z,77.91
2023-03-06T12:27:29.199Z,77.81
2023-03-06T12:28:29.187Z,77.47
2023-03-06T12:29:29.187Z,77.47
2023-03-06T12:30:29.134Z,77.22
2023-03-06T12:31:29.200Z,76.70
2023-03-06T12:32:29.139Z,76.50
2023-03-06T12:33:29.168Z,76.81
2023-03-06T12:34:29.097Z,77.12
2023-03-06T12:35:29.161Z,77.22
2023-03-06T12:36:29.102Z,77.01
2023-03-06T12:37:29.095Z,76.81
2023-03-06T12:38:29.070Z,76.81
2023-03-06T12:39:29.056Z,76.91
2023-03-06T12:40:29.214Z,77.01
2023-03-06T12:41:29.041Z,76.39
2023-03-06T12:42:28.998Z,76.50
2023-03-06T12:43:29.041Z,76.91
2023-03-06T12:44:28.989Z,76.70
2023-03-06T12:45:29.011Z,76.91
2023-03-06T12:46:28.965Z,77.05
2023-03-06T12:47:28.977Z,76.95
2023-03-06T12:48:29.890Z,76.53
2023-03-06T12:49:32.341Z,76.01
2023-03-06T12:50:28.928Z,75.91
2023-03-06T12:51:28.929Z,76.22
2023-03-06T12:52:30.498Z,76.01